createdAt,value
2018-10-06T00:00:01.913Z,92.55
2018-10-06T00:01:01.914Z,90.25
2018-10-06T00:02:01.795Z,93.31
2018-10-06T00:03:01.796Z,91.02
2018-10-06T00:04:01.676Z,91.21
2018-10-06T00:05:01.680Z,90.25
2018-10-06T00:06:01.679Z,88.82
2018-10-06T00:07:01.558Z,90.45
2018-10-06T00:08:01.562Z,88.15
2018-10-06T00:09:01.447Z,88.82
2018-10-06T00:10:01.443Z,89.68
2018-10-06T00:11:01.443Z,87.68
2018-10-06T00:12:01.326Z,90.64
2018-10-06T00:13:01.326Z,89.59
2018-10-06T00:14:01.205Z,86.43
2018-10-06T00:15:01.208Z,90.92
2018-10-06T00:16:01.208Z,88.73
2018-10-06T00:17:01.088Z,89.45
2018-10-06T00:18:00.970Z,87.63
2018-10-06T00:19:00.970Z,86.77
2018-10-06T00:20:00.971Z,87.44
2018-10-06T00:21:00.974Z,86.49
2018-10-06T00:22:00.855Z,86.30
2018-10-06T00:23:00.734Z,86.01
2018-10-06T00:24:00.735Z,85.63
2018-10-06T00:25:00.618Z,86.10
2018-10-06T00:26:00.741Z,86.20
2018-10-06T00:27:00.619Z,83.53
2018-10-06T00:28:00.501Z,86.10
2018-10-06T00:29:00.622Z,85.72
2018-10-06T00:30:00.383Z,84.00
2018-10-06T00:31:00.382Z,84.39
2018-10-06T00:32:00.265Z,86.49
2018-10-06T00:33:03.745Z,84.48
2018-10-06T00:34:00.316Z,87.44
2018-10-06T00:35:00.146Z,86.20
2018-10-06T00:36:00.204Z,87.35
2018-10-06T00:36:59.963Z,86.30
2018-10-06T00:38:00.082Z,86.01
2018-10-06T00:38:59.963Z,86.68
2018-10-06T00:39:59.843Z,84.96
2018-10-06T00:40:59.797Z,84.10
2018-10-06T00:41:59.793Z,85.05
2018-10-06T00:42:59.851Z,83.58
2018-10-06T00:43:59.606Z,81.24
2018-10-06T00:44:59.564Z,80.81
2018-10-06T00:45:59.566Z,81.29
2018-10-06T00:46:59.444Z,81.58
2018-10-06T00:47:59.558Z,81.20
2018-10-06T00:48:59.367Z,81.01
2018-10-06T00:49:59.331Z,79.86
2018-10-06T00:50:59.250Z,82.34
2018-10-06T00:51:59.208Z,81.01
2018-10-06T00:52:59.248Z,80.33
2018-10-06T00:53:59.092Z,79.14
2018-10-06T00:54:59.090Z,81.62
2018-10-06T00:55:59.018Z,82.09
2018-10-06T00:56:58.974Z,81.52
2018-10-06T00:57:58.973Z,80.66
2018-10-06T00:58:58.853Z,82.00
2018-10-06T00:59:58.854Z,81.14
2018-10-06T01:00:58.738Z,81.62
2018-10-06T01:01:58.740Z,83.34
2018-10-06T01:02:58.662Z,84.86
2018-10-06T01:03:58.618Z,84.58
2018-10-06T01:04:58.538Z,87.29
2018-10-06T01:05:58.535Z,86.96
2018-10-06T01:06:58.498Z,87.35
2018-10-06T01:07:58.414Z,88.54
2018-10-06T01:08:58.418Z,85.63
2018-10-06T01:09:58.303Z,85.05
2018-10-06T01:10:58.262Z,86.01
2018-10-06T01:11:58.185Z,83.62
2018-10-06T01:12:58.177Z,85.25
2018-10-06T01:13:58.143Z,84.29
2018-10-06T01:14:58.028Z,84.96
2018-10-06T01:15:58.026Z,84.86
2018-10-06T01:16:57.947Z,83.91
2018-10-06T01:17:57.946Z,84.77
2018-10-06T01:18:57.821Z,85.05
2018-10-06T01:19:57.790Z,81.86
2018-10-06T01:20:57.791Z,83.01
2018-10-06T01:21:57.677Z,83.87
2018-10-06T01:22:57.719Z,83.96
2018-10-06T01:23:57.588Z,81.29
2018-10-06T01:24:57.555Z,78.05
2018-10-06T01:25:57.476Z,77.00
2018-10-06T01:26:57.436Z,78.91
2018-10-06T01:27:57.476Z,78.05
2018-10-06T01:28:57.321Z,79.96
2018-10-06T01:29:57.362Z,77.38
2018-10-06T01:30:57.247Z,78.33
2018-10-06T01:31:57.202Z,79.38
2018-10-06T01:32:57.240Z,81.10
2018-10-06T01:33:57.086Z,77.19
2018-10-06T01:34:57.085Z,77.86
2018-10-06T01:35:56.981Z,77.00
2018-10-06T01:36:56.966Z,78.52
2018-10-06T01:37:56.966Z,80.19
2018-10-06T01:38:56.847Z,82.19
2018-10-06T01:39:56.848Z,82.19
2018-10-06T01:40:56.734Z,81.24
2018-10-06T01:41:56.731Z,86.30
2018-10-06T01:42:56.662Z,84.96
2018-10-06T01:43:56.613Z,82.67
2018-10-06T01:44:56.615Z,80.76
2018-10-06T01:45:56.494Z,81.52
2018-10-06T01:46:56.424Z,81.77
2018-10-06T01:47:56.378Z,79.90
2018-10-06T01:48:56.398Z,81.24
2018-10-06T01:49:56.328Z,81.43
2018-10-06T01:50:56.262Z,84.10
2018-10-06T01:51:56.179Z,77.00
2018-10-06T01:52:56.140Z,77.23
2018-10-06T01:53:56.152Z,82.76
2018-10-06T01:54:56.024Z,85.72
2018-10-06T01:55:56.032Z,84.00
2018-10-06T01:56:55.916Z,86.58
2018-10-06T01:57:55.906Z,81.77
2018-10-06T01:58:55.908Z,82.72
2018-10-06T01:59:55.834Z,79.86
2018-10-06T02:00:55.708Z,81.10
2018-10-06T02:01:55.669Z,78.14
2018-10-06T02:02:55.670Z,77.86
2018-10-06T02:03:55.561Z,75.28
2018-10-06T02:04:55.590Z,76.14
2018-10-06T02:05:55.554Z,80.24
2018-10-06T02:06:55.438Z,79.57
2018-10-06T02:07:55.351Z,80.15
2018-10-06T02:08:55.317Z,79.38
2018-10-06T02:09:55.317Z,79.44
2018-10-06T02:10:55.237Z,79.06
2018-10-06T02:11:55.199Z,74.67
2018-10-06T02:12:55.202Z,75.15
2018-10-06T02:13:55.081Z,72.86
2018-10-06T02:14:54.999Z,75.91
2018-10-06T02:15:55.000Z,73.91
2018-10-06T02:16:54.964Z,74.19
2018-10-06T02:17:54.850Z,73.81
2018-10-06T02:18:54.846Z,70.28
2018-10-06T02:19:54.769Z,70.47
2018-10-06T02:20:54.727Z,69.90
2018-10-06T02:21:54.728Z,67.52
2018-10-06T02:22:54.610Z,69.68
2018-10-06T02:23:54.610Z,65.10
2018-10-06T02:24:54.498Z,64.81
2018-10-06T02:25:54.492Z,62.91
2018-10-06T02:26:54.494Z,63.20
2018-10-06T02:27:54.413Z,59.95
2018-10-06T02:28:54.293Z,61.00
2018-10-06T02:29:54.297Z,59.38
2018-10-06T02:30:54.259Z,56.71
2018-10-06T02:31:54.146Z,57.95
2018-10-06T02:32:54.178Z,58.33
2018-10-06T02:33:54.059Z,58.84
2018-10-06T02:34:54.021Z,60.17
2018-10-06T02:35:53.942Z,56.65
2018-10-06T02:36:53.952Z,57.89
2018-10-06T02:37:53.904Z,59.70
2018-10-06T02:38:53.818Z,62.97
2018-10-06T02:39:53.787Z,66.50
2018-10-06T02:40:53.788Z,66.69
2018-10-06T02:41:53.671Z,70.79
2018-10-06T02:42:53.590Z,70.98
2018-10-06T02:43:53.552Z,70.42
2018-10-06T02:44:53.465Z,71.94
2018-10-06T02:45:53.552Z,71.94
2018-10-06T02:46:53.432Z,72.71
2018-10-06T02:47:53.357Z,73.18
2018-10-06T02:48:53.316Z,74.93
2018-10-06T02:49:53.232Z,77.00
2018-10-06T02:50:53.318Z,76.46
2018-10-06T02:51:53.109Z,73.79
2018-10-06T02:52:53.078Z,75.13
2018-10-06T02:53:53.080Z,73.98
2018-10-06T02:54:52.993Z,72.83
2018-10-06T02:55:53.085Z,73.22
2018-10-06T02:56:52.876Z,73.18
2018-10-06T02:57:52.846Z,68.60
2018-10-06T02:58:52.965Z,68.88
2018-10-06T02:59:52.846Z,69.17
2018-10-06T03:00:52.846Z,69.27
2018-10-06T03:01:52.848Z,71.59
2018-10-06T03:02:52.731Z,73.98
2018-10-06T03:03:52.609Z,74.74
2018-10-06T03:04:52.611Z,74.74
2018-10-06T03:05:52.492Z,74.74
2018-10-06T03:06:52.612Z,74.65
2018-10-06T03:07:52.494Z,76.65
2018-10-06T03:08:52.379Z,78.09
2018-10-06T03:09:52.495Z,79.90
2018-10-06T03:10:52.256Z,79.80
2018-10-06T03:11:52.258Z,80.28
2018-10-06T03:12:52.151Z,81.33
2018-10-06T03:13:52.139Z,80.57
2018-10-06T03:14:52.140Z,78.62
2018-10-06T03:15:52.022Z,77.09
2018-10-06T03:16:52.142Z,76.42
2018-10-06T03:17:51.902Z,72.23
2018-10-06T03:18:51.906Z,71.46
2018-10-06T03:19:51.785Z,70.32
2018-10-06T03:20:51.787Z,68.12
2018-10-06T03:21:51.786Z,69.93
2018-10-06T03:22:51.669Z,68.22
2018-10-06T03:23:51.670Z,71.46
2018-10-06T03:24:51.549Z,69.27
2018-10-06T03:25:51.551Z,73.08
2018-10-06T03:26:51.550Z,69.27
2018-10-06T03:27:51.432Z,69.74
2018-10-06T03:28:51.440Z,69.27
2018-10-06T03:29:51.313Z,67.36
2018-10-06T03:30:51.326Z,68.41
2018-10-06T03:31:51.324Z,69.74
2018-10-06T03:32:51.323Z,67.36
2018-10-06T03:33:51.080Z,69.65
2018-10-06T03:34:51.079Z,68.60
2018-10-06T03:35:51.081Z,68.70
2018-10-06T03:36:50.960Z,70.79
2018-10-06T03:37:51.082Z,66.88
2018-10-06T03:38:50.845Z,69.93
2018-10-06T03:39:50.844Z,68.22
2018-10-06T03:40:50.732Z,68.32
2018-10-06T03:41:50.727Z,68.12
2018-10-06T03:42:50.727Z,68.22
2018-10-06T03:43:50.610Z,68.12
2018-10-06T03:44:50.609Z,68.51
2018-10-06T03:45:50.495Z,66.98
2018-10-06T03:46:50.491Z,66.78
2018-10-06T03:47:50.492Z,67.36
2018-10-06T03:48:50.372Z,66.78
2018-10-06T03:49:50.376Z,66.50
2018-10-06T03:50:50.256Z,66.60
2018-10-06T03:51:50.255Z,66.47
2018-10-06T03:52:50.257Z,66.02
2018-10-06T03:53:50.142Z,65.80
2018-10-06T03:54:50.138Z,63.92
2018-10-06T03:55:50.020Z,66.66
2018-10-06T03:56:49.900Z,66.31
2018-10-06T03:57:49.900Z,66.78
2018-10-06T03:58:50.026Z,66.60
2018-10-06T03:59:49.719Z,68.41
2018-10-06T04:00:49.719Z,68.70
2018-10-06T04:01:49.720Z,68.22
2018-10-06T04:02:49.601Z,69.17
2018-10-06T04:03:49.548Z,65.93
2018-10-06T04:04:49.502Z,65.74
2018-10-06T04:05:49.557Z,64.50
2018-10-06T04:06:49.365Z,64.69
2018-10-06T04:07:49.361Z,66.78
2018-10-06T04:08:49.319Z,67.17
2018-10-06T04:09:49.208Z,67.27
2018-10-06T04:10:49.129Z,66.98
2018-10-06T04:11:49.086Z,65.93
2018-10-06T04:12:49.085Z,67.17
2018-10-06T04:13:49.090Z,68.12
2018-10-06T04:14:48.970Z,68.51
2018-10-06T04:15:48.889Z,67.17
2018-10-06T04:16:48.847Z,66.60
2018-10-06T04:17:48.778Z,66.98
2018-10-06T04:18:48.766Z,65.83
2018-10-06T04:19:48.733Z,65.45
2018-10-06T04:20:48.609Z,64.50
2018-10-06T04:21:48.613Z,65.33
2018-10-06T04:22:48.605Z,64.09
2018-10-06T04:23:48.530Z,66.02
2018-10-06T04:24:48.415Z,64.94
2018-10-06T04:25:48.372Z,62.94
2018-10-06T04:26:48.371Z,64.09
2018-10-06T04:27:48.291Z,66.47
2018-10-06T04:28:48.254Z,65.13
2018-10-06T04:29:48.255Z,66.47
2018-10-06T04:30:48.134Z,66.28
2018-10-06T04:31:48.052Z,65.61
2018-10-06T04:32:48.017Z,63.80
2018-10-06T04:33:48.016Z,63.23
2018-10-06T04:34:47.993Z,62.65
2018-10-06T04:35:47.941Z,59.60
2018-10-06T04:36:47.825Z,60.94
2018-10-06T04:37:47.781Z,59.09
2018-10-06T04:38:47.694Z,58.91
2018-10-06T04:39:50.543Z,59.57
2018-10-06T04:40:47.664Z,57.57
2018-10-06T04:41:47.545Z,56.81
2018-10-06T04:42:47.544Z,51.47
2018-10-06T04:43:47.431Z,54.80
2018-10-06T04:44:47.428Z,53.56
2018-10-06T04:45:47.428Z,46.04
2018-10-06T04:46:47.347Z,47.39
2018-10-06T04:47:47.311Z,50.83
2018-10-06T04:48:47.191Z,53.31
2018-10-06T04:49:47.191Z,54.45
2018-10-06T04:50:47.077Z,57.43
2018-10-06T04:51:47.114Z,57.63
2018-10-06T04:52:46.995Z,59.63
2018-10-06T04:53:46.980Z,60.68
2018-10-06T04:54:46.871Z,63.54
2018-10-06T04:55:46.840Z,64.78
2018-10-06T04:56:46.877Z,66.02
2018-10-06T04:57:46.723Z,67.46
2018-10-06T04:58:46.720Z,63.26
2018-10-06T04:59:46.641Z,58.26
2018-10-06T05:00:46.603Z,58.48
2018-10-06T05:01:52.044Z,61.70
2018-10-06T05:02:46.484Z,61.04
2018-10-06T05:03:46.421Z,59.41
2018-10-06T05:04:46.367Z,55.02
2018-10-06T05:05:46.367Z,62.08
2018-10-06T05:06:46.369Z,59.31
2018-10-06T05:07:46.249Z,51.50
2018-10-06T05:08:46.168Z,53.41
2018-10-06T05:09:46.131Z,52.73
2018-10-06T05:10:46.062Z,55.02
2018-10-06T05:11:46.065Z,54.93
2018-10-06T05:12:46.016Z,55.79
2018-10-06T05:13:45.909Z,56.74
2018-10-06T05:14:45.898Z,53.50
2018-10-06T05:15:45.898Z,55.21
2018-10-06T05:16:45.898Z,55.02
2018-10-06T05:17:45.704Z,56.65
2018-10-06T05:18:45.668Z,54.93
2018-10-06T05:19:45.665Z,57.70
2018-10-06T05:20:45.557Z,55.21
2018-10-06T05:21:45.675Z,55.79
2018-10-06T05:22:45.463Z,53.41
2018-10-06T05:23:45.591Z,52.14
2018-10-06T05:24:45.350Z,53.09
2018-10-06T05:25:45.321Z,51.66
2018-10-06T05:26:45.316Z,49.47
2018-10-06T05:27:45.195Z,48.71
2018-10-06T05:28:45.207Z,46.99
2018-10-06T05:29:45.099Z,45.84
2018-10-06T05:30:45.078Z,48.52
2018-10-06T05:31:45.076Z,47.47
2018-10-06T05:32:44.960Z,44.89
2018-10-06T05:33:44.877Z,46.42
2018-10-06T05:34:44.843Z,43.37
2018-10-06T05:35:44.847Z,44.99
2018-10-06T05:36:44.763Z,39.65
2018-10-06T05:37:44.730Z,36.69
2018-10-06T05:38:44.641Z,40.89
2018-10-06T05:39:44.653Z,42.70
2018-10-06T05:40:44.514Z,45.65
2018-10-06T05:41:44.517Z,44.60
2018-10-06T05:42:44.487Z,45.94
2018-10-06T05:43:44.370Z,44.99
2018-10-06T05:44:44.365Z,42.80
2018-10-06T05:45:44.366Z,42.32
2018-10-06T05:46:44.250Z,42.32
2018-10-06T05:47:44.248Z,44.70
2018-10-06T05:48:44.129Z,42.41
2018-10-06T05:49:44.048Z,42.89
2018-10-06T05:50:44.051Z,40.03
2018-10-06T05:51:44.013Z,40.70
2018-10-06T05:52:43.897Z,40.03
2018-10-06T05:53:43.893Z,40.12
2018-10-06T05:54:43.813Z,41.08
2018-10-06T05:55:43.821Z,41.75
2018-10-06T05:56:43.696Z,41.94
2018-10-06T05:57:43.659Z,42.51
2018-10-06T05:58:43.660Z,41.56
2018-10-06T05:59:43.543Z,42.72
2018-10-06T06:00:43.570Z,43.49
2018-10-06T06:01:43.461Z,44.15
2018-10-06T06:02:43.462Z,45.87
2018-10-06T06:03:43.344Z,45.58
2018-10-06T06:04:43.307Z,45.87
2018-10-06T06:05:43.305Z,46.54
2018-10-06T06:06:43.224Z,46.44
2018-10-06T06:07:43.187Z,47.78
2018-10-06T06:08:43.112Z,49.11
2018-10-06T06:09:43.078Z,48.16
2018-10-06T06:10:43.069Z,47.97
2018-10-06T06:11:42.951Z,50.54
2018-10-06T06:12:42.951Z,50.35
2018-10-06T06:13:42.834Z,50.83
2018-10-06T06:14:42.833Z,49.97
2018-10-06T06:15:42.870Z,51.21
2018-10-06T06:16:42.716Z,51.31
2018-10-06T06:17:42.716Z,51.59
2018-10-06T06:18:42.599Z,50.73
2018-10-06T06:19:42.510Z,51.12
2018-10-06T06:20:42.482Z,51.97
2018-10-06T06:21:42.601Z,52.55
2018-10-06T06:22:42.481Z,51.88
2018-10-06T06:23:42.418Z,52.64
2018-10-06T06:24:42.363Z,53.50
2018-10-06T06:25:42.245Z,53.50
2018-10-06T06:26:42.246Z,54.07
2018-10-06T06:27:42.374Z,54.86
2018-10-06T06:28:42.249Z,55.82
2018-10-06T06:29:42.128Z,54.86
2018-10-06T06:30:42.132Z,57.43
2018-10-06T06:31:42.011Z,58.39
2018-10-06T06:32:42.133Z,58.87
2018-10-06T06:33:41.892Z,60.68
2018-10-06T06:34:42.014Z,61.63
2018-10-06T06:35:41.773Z,61.73
2018-10-06T06:36:41.775Z,62.40
2018-10-06T06:37:41.775Z,63.10
2018-10-06T06:38:41.657Z,63.10
2018-10-06T06:39:41.779Z,62.52
2018-10-06T06:40:41.544Z,62.62
2018-10-06T06:41:41.538Z,63.96
2018-10-06T06:42:41.420Z,64.43
2018-10-06T06:43:41.440Z,63.48
2018-10-06T06:44:41.424Z,64.43
2018-10-06T06:45:41.311Z,63.00
2018-10-06T06:46:41.428Z,64.43
2018-10-06T06:47:41.191Z,65.30
2018-10-06T06:48:41.185Z,65.20
2018-10-06T06:49:41.067Z,64.05
2018-10-06T06:50:41.068Z,65.10
2018-10-06T06:51:41.068Z,65.77
2018-10-06T06:52:40.950Z,65.48
2018-10-06T06:53:40.954Z,66.92
2018-10-06T06:54:40.834Z,65.67
2018-10-06T06:55:40.835Z,66.63
2018-10-06T06:56:40.837Z,66.53
2018-10-06T06:57:40.715Z,66.82
2018-10-06T06:58:40.716Z,68.35
2018-10-06T06:59:40.599Z,69.49
2018-10-06T07:00:40.597Z,69.97
2018-10-06T07:01:40.600Z,70.96
2018-10-06T07:02:40.481Z,71.82
2018-10-06T07:03:40.361Z,72.20
2018-10-06T07:04:40.363Z,73.35
2018-10-06T07:05:40.434Z,74.88
2018-10-06T07:06:40.364Z,75.16
2018-10-06T07:07:40.245Z,75.64
2018-10-06T07:08:40.246Z,75.07
2018-10-06T07:09:40.130Z,75.74
2018-10-06T07:10:40.009Z,76.31
2018-10-06T07:11:50.687Z,77.69
2018-10-06T07:12:40.084Z,79.31
2018-10-06T07:13:40.011Z,80.93
2018-10-06T07:14:39.890Z,81.70
2018-10-06T07:15:39.773Z,82.98
2018-10-06T07:16:39.774Z,83.94
2018-10-06T07:17:39.773Z,85.28
2018-10-06T07:18:39.724Z,86.23
2018-10-06T07:19:39.659Z,88.38
2018-10-06T07:20:39.537Z,89.53
2018-10-06T07:21:39.538Z,92.44
2018-10-06T07:22:39.538Z,95.84
2018-10-06T07:23:39.419Z,98.96
2018-10-06T07:24:39.422Z,99.99
2018-10-06T07:25:39.373Z,99.82
2018-10-06T07:26:39.243Z,99.99
2018-10-06T07:27:39.240Z,99.99
2018-10-06T07:28:39.277Z,99.99
2018-10-06T07:29:39.121Z,99.99
2018-10-06T07:30:38.953Z,99.99
2018-10-06T07:31:39.002Z,99.99
2018-10-06T07:32:38.956Z,99.99
2018-10-06T07:33:38.836Z,99.99
2018-10-06T07:34:38.882Z,99.99
2018-10-06T07:35:38.718Z,99.99
2018-10-06T07:36:38.722Z,99.99
2018-10-06T07:37:38.722Z,99.99
2018-10-06T07:38:45.561Z,99.99
2018-10-06T07:39:38.601Z,99.99
2018-10-06T07:40:38.487Z,99.99
2018-10-06T07:41:38.483Z,99.99
2018-10-06T07:42:38.528Z,99.99
2018-10-06T07:43:38.405Z,99.99
2018-10-06T07:44:38.366Z,99.99
2018-10-06T07:45:38.295Z,99.99
2018-10-06T07:46:38.246Z,99.99
2018-10-06T07:47:38.168Z,99.99
2018-10-06T07:48:38.168Z,99.99
2018-10-06T07:49:38.131Z,99.99
2018-10-06T07:50:38.057Z,99.99
2018-10-06T07:51:38.011Z,99.99
2018-10-06T07:52:38.012Z,99.99
2018-10-06T07:53:38.013Z,99.99
2018-10-06T07:54:37.894Z,99.99
2018-10-06T07:55:37.894Z,99.99
2018-10-06T07:56:37.831Z,99.99
2018-10-06T07:57:37.816Z,99.99
2018-10-06T07:58:37.703Z,99.99
2018-10-06T07:59:37.658Z,99.99
2018-10-06T08:00:37.698Z,99.99
2018-10-06T08:01:37.573Z,99.99
2018-10-06T08:02:37.545Z,99.99
2018-10-06T08:03:37.546Z,99.99
2018-10-06T08:04:37.467Z,99.99
2018-10-06T08:05:37.455Z,99.99
2018-10-06T08:06:37.423Z,99.99
2018-10-06T08:07:37.306Z,99.99
2018-10-06T08:08:37.339Z,99.99
2018-10-06T08:09:37.219Z,99.99
2018-10-06T08:10:37.188Z,99.99
2018-10-06T08:11:37.189Z,99.99
2018-10-06T08:12:37.103Z,99.99
2018-10-06T08:13:37.104Z,99.99
2018-10-06T08:14:37.069Z,99.99
2018-10-06T08:15:36.989Z,99.99
2018-10-06T08:16:36.951Z,99.99
2018-10-06T08:17:36.953Z,99.99
2018-10-06T08:18:36.953Z,99.99
2018-10-06T08:19:36.835Z,99.99
2018-10-06T08:20:36.876Z,99.99
2018-10-06T08:21:36.741Z,99.99
2018-10-06T08:22:36.718Z,99.99
2018-10-06T08:23:36.722Z,99.99
2018-10-06T08:24:36.623Z,99.99
2018-10-06T08:25:36.637Z,98.49
2018-10-06T08:26:36.602Z,99.16
2018-10-06T08:27:36.603Z,96.17
2018-10-06T08:28:36.484Z,96.08
2018-10-06T08:29:36.486Z,96.75
2018-10-06T08:30:36.386Z,95.31
2018-10-06T08:31:36.367Z,96.17
2018-10-06T08:32:36.407Z,95.59
2018-10-06T08:33:36.285Z,96.94
2018-10-06T08:34:36.249Z,95.79
2018-10-06T08:35:36.248Z,93.38
2018-10-06T08:36:36.169Z,93.91
2018-10-06T08:37:36.264Z,91.11
2018-10-06T08:38:36.132Z,93.48
2018-10-06T08:39:36.052Z,93.96
2018-10-06T08:40:36.014Z,94.06
2018-10-06T08:41:36.015Z,93.57
2018-10-06T08:42:36.078Z,95.07
2018-10-06T08:43:35.897Z,97.09
2018-10-06T08:44:35.899Z,98.24
2018-10-06T08:45:35.826Z,98.63
2018-10-06T08:46:35.795Z,96.08
2018-10-06T08:47:35.823Z,96.27
2018-10-06T08:48:35.704Z,93.43
2018-10-06T08:49:35.686Z,92.32
2018-10-06T08:50:35.664Z,90.38
2018-10-06T08:51:35.587Z,88.07
2018-10-06T08:52:35.592Z,85.66
2018-10-06T08:53:35.553Z,86.28
2018-10-06T08:54:35.555Z,83.19
2018-10-06T08:55:35.438Z,82.57
2018-10-06T08:56:35.435Z,87.06
2018-10-06T08:57:35.434Z,87.70
2018-10-06T08:58:35.339Z,88.65
2018-10-06T08:59:35.351Z,90.44
2018-10-06T09:00:35.325Z,89.72
2018-10-06T09:01:35.230Z,88.79
2018-10-06T09:02:35.201Z,85.13
2018-10-06T09:03:35.198Z,86.62
2018-10-06T09:04:35.200Z,82.81
2018-10-06T09:05:35.112Z,82.13
2018-10-06T09:06:35.080Z,80.78
2018-10-06T09:07:34.993Z,79.66
2018-10-06T09:08:34.962Z,77.83
2018-10-06T09:09:34.999Z,75.45
2018-10-06T09:10:34.876Z,73.61
2018-10-06T09:11:34.847Z,71.91
2018-10-06T09:12:34.846Z,70.50
2018-10-06T09:13:34.765Z,68.37
2018-10-06T09:14:34.765Z,69.98
2018-10-06T09:15:34.732Z,69.04
2018-10-06T09:16:34.651Z,69.30
2018-10-06T09:17:34.649Z,68.68
2018-10-06T09:18:34.611Z,69.07
2018-10-06T09:19:34.533Z,72.84
2018-10-06T09:20:34.528Z,71.88
2018-10-06T09:21:34.494Z,69.88
2018-10-06T09:22:34.416Z,68.91
2018-10-06T09:23:34.377Z,66.91
2018-10-06T09:24:34.377Z,68.75
2018-10-06T09:25:34.379Z,67.40
2018-10-06T09:26:34.259Z,67.36
2018-10-06T09:27:34.261Z,66.59
2018-10-06T09:28:34.180Z,67.66
2018-10-06T09:29:34.264Z,67.85
2018-10-06T09:30:34.144Z,66.14
2018-10-06T09:31:34.068Z,65.88
2018-10-06T09:32:34.037Z,63.59
2018-10-06T09:33:34.026Z,62.59
2018-10-06T09:34:34.026Z,62.85
2018-10-06T09:35:33.948Z,64.95
2018-10-06T09:36:33.914Z,64.89
2018-10-06T09:37:33.829Z,64.27
2018-10-06T09:38:33.824Z,64.85
2018-10-06T09:39:33.913Z,66.36
2018-10-06T09:40:33.714Z,66.17
2018-10-06T09:41:33.710Z,66.85
2018-10-06T09:42:33.863Z,64.76
2018-10-06T09:43:33.590Z,65.24
2018-10-06T09:44:33.677Z,64.08
2018-10-06T09:45:33.558Z,63.31
2018-10-06T09:46:33.469Z,63.11
2018-10-06T09:47:33.561Z,62.56
2018-10-06T09:48:33.441Z,62.56
2018-10-06T09:49:33.441Z,62.08
2018-10-06T09:50:33.442Z,61.98
2018-10-06T09:51:33.444Z,61.60
2018-10-06T09:52:33.323Z,61.50
2018-10-06T09:53:33.336Z,62.27
2018-10-06T09:54:33.326Z,61.18
2018-10-06T09:55:33.326Z,59.23
2018-10-06T09:56:33.208Z,58.78
2018-10-06T09:57:33.209Z,57.50
2018-10-06T09:58:33.089Z,56.92
2018-10-06T09:59:33.182Z,59.01
2018-10-06T10:00:33.212Z,60.44
2018-10-06T10:01:32.975Z,60.57
2018-10-06T10:02:32.975Z,59.63
2018-10-06T10:03:32.976Z,59.01
2018-10-06T10:04:32.857Z,59.14
2018-10-06T10:05:33.008Z,58.75
2018-10-06T10:06:32.857Z,58.14
2018-10-06T10:07:32.740Z,59.28
2018-10-06T10:08:32.741Z,60.69
2018-10-06T10:09:32.740Z,60.34
2018-10-06T10:10:32.742Z,59.56
2018-10-06T10:11:32.623Z,60.44
2018-10-06T10:12:32.820Z,60.89
2018-10-06T10:13:32.505Z,60.96
2018-10-06T10:14:32.505Z,60.86
2018-10-06T10:15:32.613Z,62.66
2018-10-06T10:16:32.387Z,62.98
2018-10-06T10:17:32.738Z,62.31
2018-10-06T10:18:32.492Z,62.79
2018-10-06T10:19:32.273Z,61.51
2018-10-06T10:20:32.271Z,62.44
2018-10-06T10:21:32.277Z,64.40
2018-10-06T10:22:32.311Z,63.18
2018-10-06T10:23:32.355Z,63.76
2018-10-06T10:24:32.037Z,63.08
2018-10-06T10:25:32.038Z,61.51
2018-10-06T10:26:32.039Z,62.57
2018-10-06T10:27:34.080Z,63.73
2018-10-06T10:28:32.126Z,63.66
2018-10-06T10:29:31.920Z,62.89
2018-10-06T10:30:31.802Z,61.54
2018-10-06T10:31:31.803Z,61.44
2018-10-06T10:32:31.804Z,62.12
2018-10-06T10:33:31.805Z,59.95
2018-10-06T10:34:31.715Z,60.17
2018-10-06T10:35:31.687Z,59.33
2018-10-06T10:36:31.568Z,57.01
2018-10-06T10:37:31.614Z,57.30
2018-10-06T10:38:31.690Z,56.67
2018-10-06T10:39:31.568Z,59.28
2018-10-06T10:40:31.452Z,60.41
2018-10-06T10:41:31.452Z,60.34
2018-10-06T10:42:31.332Z,58.21
2018-10-06T10:43:31.457Z,59.44
2018-10-06T10:44:31.387Z,60.21
2018-10-06T10:45:31.216Z,60.21
2018-10-06T10:46:31.336Z,59.73
2018-10-06T10:47:31.217Z,59.89
2018-10-06T10:48:31.101Z,59.99
2018-10-06T10:49:31.103Z,60.93
2018-10-06T10:50:31.043Z,61.70
2018-10-06T10:51:31.102Z,60.57
2018-10-06T10:52:30.989Z,59.89
2018-10-06T10:53:30.863Z,59.77
2018-10-06T10:54:30.855Z,61.77
2018-10-06T10:55:30.850Z,62.57
2018-10-06T10:56:30.798Z,61.05
2018-10-06T10:57:30.644Z,60.73
2018-10-06T10:58:30.635Z,61.41
2018-10-06T10:59:30.729Z,62.18
2018-10-06T11:00:30.581Z,62.47
2018-10-06T11:01:30.518Z,61.60
2018-10-06T11:02:30.444Z,62.63
2018-10-06T11:03:30.515Z,63.31
2018-10-06T11:04:30.450Z,62.54
2018-10-06T11:05:30.323Z,63.37
2018-10-06T11:06:30.289Z,63.98
2018-10-06T11:07:30.283Z,64.86
2018-10-06T11:08:30.211Z,64.21
2018-10-06T11:09:30.219Z,62.95
2018-10-06T11:10:30.164Z,61.73
2018-10-06T11:11:30.087Z,60.31
2018-10-06T11:12:30.046Z,59.95
2018-10-06T11:13:30.047Z,59.18
2018-10-06T11:14:29.975Z,59.18
2018-10-06T11:15:29.973Z,58.72
2018-10-06T11:16:29.928Z,58.34
2018-10-06T11:17:29.850Z,57.82
2018-10-06T11:18:29.814Z,59.08
2018-10-06T11:19:29.730Z,59.08
2018-10-06T11:20:29.695Z,58.67
2018-10-06T11:21:29.734Z,58.95
2018-10-06T11:22:29.697Z,59.15
2018-10-06T11:23:29.582Z,58.09
2018-10-06T11:24:29.586Z,58.86
2018-10-06T11:25:29.492Z,58.89
2018-10-06T11:26:29.457Z,59.15
2018-10-06T11:27:29.494Z,60.28
2018-10-06T11:28:29.380Z,61.31
2018-10-06T11:29:29.341Z,62.73
2018-10-06T11:30:29.339Z,64.34
2018-10-06T11:31:29.257Z,65.56
2018-10-06T11:32:29.256Z,66.43
2018-10-06T11:33:29.223Z,68.04
2018-10-06T11:34:29.144Z,68.52
2018-10-06T11:35:29.105Z,68.26
2018-10-06T11:36:29.105Z,68.16
2018-10-06T11:37:29.084Z,68.26
2018-10-06T11:38:29.024Z,67.88
2018-10-06T11:39:28.987Z,68.39
2018-10-06T11:40:28.874Z,67.91
2018-10-06T11:41:28.871Z,67.69
2018-10-06T11:42:28.793Z,63.56
2018-10-06T11:43:28.792Z,62.15
2018-10-06T11:44:28.753Z,62.24
2018-10-06T11:45:28.666Z,61.83
2018-10-06T11:46:28.637Z,62.89
2018-10-06T11:47:28.677Z,62.44
2018-10-06T11:48:28.639Z,61.11
2018-10-06T11:49:28.517Z,60.31
2018-10-06T11:50:28.598Z,60.35
2018-10-06T11:51:28.519Z,61.60
2018-10-06T11:52:28.400Z,62.54
2018-10-06T11:53:28.432Z,63.79
2018-10-06T11:54:28.323Z,62.66
2018-10-06T11:55:28.284Z,62.66
2018-10-06T11:56:28.289Z,62.40
2018-10-06T11:57:28.205Z,60.18
2018-10-06T11:58:28.205Z,60.47
2018-10-06T11:59:28.100Z,60.35
2018-10-06T12:00:28.088Z,61.51
2018-10-06T12:01:28.093Z,62.44
2018-10-06T12:02:27.980Z,62.15
2018-10-06T12:03:27.980Z,62.54
2018-10-06T12:04:27.934Z,63.37
2018-10-06T12:05:27.932Z,63.28
2018-10-06T12:06:27.816Z,63.76
2018-10-06T12:07:27.816Z,64.43
2018-10-06T12:08:27.815Z,64.08
2018-10-06T12:09:27.742Z,63.31
2018-10-06T12:10:27.698Z,64.40
2018-10-06T12:11:27.699Z,62.76
2018-10-06T12:12:27.579Z,62.37
2018-10-06T12:13:27.580Z,62.92
2018-10-06T12:14:27.494Z,60.09
2018-10-06T12:15:27.462Z,61.22
2018-10-06T12:16:27.474Z,62.25
2018-10-06T12:17:27.351Z,63.31
2018-10-06T12:18:27.345Z,64.34
2018-10-06T12:19:27.264Z,65.37
2018-10-06T12:20:27.254Z,66.33
2018-10-06T12:21:27.272Z,66.82
2018-10-06T12:22:27.146Z,66.39
2018-10-06T12:23:27.117Z,68.13
2018-10-06T12:24:27.121Z,67.78
2018-10-06T12:25:27.027Z,67.81
2018-10-06T12:26:27.034Z,67.14
2018-10-06T12:27:27.047Z,66.75
2018-10-06T12:28:26.909Z,67.62
2018-10-06T12:29:26.876Z,67.91
2018-10-06T12:30:26.885Z,67.68
2018-10-06T12:31:26.795Z,67.91
2018-10-06T12:32:26.759Z,67.04
2018-10-06T12:33:26.759Z,66.66
2018-10-06T12:34:26.645Z,68.77
2018-10-06T12:35:26.760Z,68.04
2018-10-06T12:36:26.642Z,66.59
2018-10-06T12:37:26.525Z,65.14
2018-10-06T12:38:26.525Z,65.82
2018-10-06T12:39:26.445Z,66.27
2018-10-06T12:40:26.406Z,68.01
2018-10-06T12:41:26.448Z,67.62
2018-10-06T12:42:26.324Z,66.40
2018-10-06T12:43:26.290Z,65.08
2018-10-06T12:44:26.296Z,63.60
2018-10-06T12:45:26.205Z,61.86
2018-10-06T12:46:26.214Z,61.79
2018-10-06T12:47:26.172Z,60.28
2018-10-06T12:48:26.093Z,62.18
2018-10-06T12:49:26.055Z,62.92
2018-10-06T12:50:25.972Z,63.79
2018-10-06T12:51:25.965Z,64.50